Terminal Aerodrome Forecast
Issued by NWS Nashville, TN

Home | Current Version | Previous Version | Text Only | Print | Product List | Glossary On
Versions: 1 2 3 4 5 6 7 8 9 10 11 12 13 14 15 16
000
FTUS44 KOHX 261121
TAFBNA
TAF
KBNA 261121Z 2612/2712 00000KT P6SM BCFG SCT001
      TEMPO 2612/2613 1/2SM FG VV001
     FM261400 02005KT P6SM SCT050
     FM270600 00000KT P6SM BCFG SKC=

USA.gov is the U.S. government's official web portal to all federal, state and local government web resources and services.